Time;durP1;ratioP1;P1;durP2;ratioP2;P2;SDS_P1;SDS_P2;PMS_P1;PMS_P2;Temp;Humidity;BMP_temperature;BMP_pressure;BME280_temperature;BME280_humidity;BME280_pressure;Samples;Min_cycle;Max_cycle;Signal;HPM_P1;HPM_P2
2023/09/21 00:02:19;;;;;;;4.18;1.98;;;18.90;99.90;;;;;;5005091;28;20111;-49
2023/09/21 00:04:45;;;;;;;4.28;2.42;;;18.80;99.90;;;;;;5004098;28;20622;-51
2023/09/21 00:07:11;;;;;;;3.72;2.10;;;18.80;99.90;;;;;;5005434;28;20688;-51
2023/09/21 00:09:37;;;;;;;4.85;2.42;;;18.90;99.90;;;;;;5006717;28;20049;-51
2023/09/21 00:12:03;;;;;;;5.35;2.22;;;18.90;99.90;;;;;;4998856;28;20034;-48
2023/09/21 00:14:32;;;;;;;5.20;2.35;;;18.80;99.90;;;;;;4985853;28;20671;-50
2023/09/21 00:16:58;;;;;;;7.15;2.40;;;18.80;99.90;;;;;;4986645;28;20243;-48
2023/09/21 00:19:24;;;;;;;4.95;2.25;;;18.80;99.90;;;;;;4984383;28;20038;-49
2023/09/21 00:21:49;;;;;;;4.70;2.30;;;18.80;99.90;;;;;;4986206;28;20128;-49
2023/09/21 00:24:15;;;;;;;6.00;2.50;;;18.80;99.90;;;;;;4985537;28;20448;-48
2023/09/21 00:26:41;;;;;;;6.18;2.50;;;18.80;99.90;;;;;;4986733;28;20053;-49
2023/09/21 00:29:07;;;;;;;6.53;2.45;;;18.90;99.90;;;;;;4986865;28;20042;-49
2023/09/21 00:31:33;;;;;;;4.35;2.30;;;18.80;99.90;;;;;;4996815;28;20050;-50
2023/09/21 00:33:59;;;;;;;9.48;2.50;;;18.70;99.90;;;;;;4985224;28;20043;-49
2023/09/21 00:36:24;;;;;;;3.58;2.20;;;18.70;99.90;;;;;;4986316;28;20046;-50
2023/09/21 00:38:52;;;;;;;8.10;2.10;;;18.70;99.90;;;;;;4985699;28;20048;-48
2023/09/21 00:41:18;;;;;;;5.35;2.20;;;18.70;99.90;;;;;;4985368;28;20432;-48
2023/09/21 00:43:44;;;;;;;3.40;2.10;;;18.60;99.90;;;;;;4986217;28;20077;-50
2023/09/21 00:46:09;;;;;;;3.97;2.20;;;18.60;99.90;;;;;;4986184;28;20144;-48
2023/09/21 00:48:42;;;;;;;5.80;2.28;;;18.50;99.90;;;;;;4985702;28;20126;-50
2023/09/21 00:51:12;;;;;;;4.70;2.45;;;18.50;99.90;;;;;;4985534;28;20043;-49
2023/09/21 00:53:39;;;;;;;5.95;2.10;;;18.50;99.90;;;;;;4985775;28;20042;-49
2023/09/21 00:56:17;;;;;;;4.80;2.38;;;18.50;99.90;;;;;;4985576;28;20046;-48
2023/09/21 00:58:53;;;;;;;7.20;2.33;;;18.60;99.90;;;;;;4986058;28;20424;-49
2023/09/21 01:01:22;;;;;;;4.97;2.47;;;18.60;99.90;;;;;;4984394;28;20046;-50
2023/09/21 01:03:49;;;;;;;4.97;2.35;;;18.60;99.90;;;;;;4983958;28;20097;-48
2023/09/21 01:08:51;;;;;;;4.13;2.30;;;18.60;99.90;;;;;;5002661;23;20063;-58
2023/09/21 01:11:18;;;;;;;4.28;2.22;;;18.60;99.90;;;;;;4984532;28;20050;-55
2023/09/21 01:13:44;;;;;;;3.45;2.10;;;18.60;99.90;;;;;;4995656;28;20057;-57
2023/09/21 01:16:13;;;;;;;4.68;2.40;;;18.10;99.90;;;;;;5005157;28;20033;-57
2023/09/21 01:18:40;;;;;;;6.38;2.20;;;18.60;99.90;;;;;;5002409;28;20096;-57
2023/09/21 01:21:10;;;;;;;5.65;2.20;;;18.60;99.90;;;;;;4985547;28;20121;-56
2023/09/21 01:23:45;;;;;;;5.03;2.35;;;18.60;99.90;;;;;;4984812;28;20392;-56
2023/09/21 01:26:15;;;;;;;5.00;2.17;;;18.70;99.90;;;;;;4984779;28;20078;-57
2023/09/21 01:28:41;;;;;;;3.92;2.00;;;18.60;99.90;;;;;;4984321;28;20100;-57
2023/09/21 01:31:11;;;;;;;3.80;1.95;;;18.70;99.90;;;;;;4991651;28;20038;-56
2023/09/21 01:33:38;;;;;;;4.43;2.28;;;18.70;99.90;;;;;;4984931;28;20049;-57
2023/09/21 01:36:08;;;;;;;4.25;2.10;;;18.70;99.90;;;;;;4984902;28;20082;-55
2023/09/21 01:38:38;;;;;;;6.28;2.20;;;18.60;99.90;;;;;;4984105;28;20392;-55
2023/09/21 01:41:06;;;;;;;5.80;2.30;;;18.70;99.90;;;;;;4983928;28;20056;-56
2023/09/21 01:43:33;;;;;;;4.00;2.17;;;18.70;99.90;;;;;;4996321;28;20053;-57
2023/09/21 01:45:58;;;;;;;4.13;2.20;;;18.70;99.90;;;;;;5004124;28;20061;-56
2023/09/21 01:48:24;;;;;;;3.30;1.95;;;18.70;99.90;;;;;;5002434;28;20042;-56
2023/09/21 01:50:50;;;;;;;4.10;2.00;;;18.70;99.90;;;;;;4999201;28;20037;-56
2023/09/21 01:53:21;;;;;;;4.63;2.20;;;18.70;99.90;;;;;;4998552;28;20489;-59
2023/09/21 01:55:49;;;;;;;5.05;2.03;;;18.70;99.90;;;;;;5003591;28;20050;-57
2023/09/21 01:58:16;;;;;;;5.15;1.90;;;18.80;99.90;;;;;;5003760;28;20037;-57
2023/09/21 02:00:46;;;;;;;5.50;2.20;;;18.80;99.90;;;;;;5003315;28;20045;-57
2023/09/21 02:03:13;;;;;;;4.50;2.05;;;18.70;99.90;;;;;;5003634;28;20116;-58
2023/09/21 02:05:40;;;;;;;4.63;2.15;;;18.70;99.90;;;;;;5001733;28;20109;-57
2023/09/21 02:08:11;;;;;;;5.18;2.08;;;18.70;99.90;;;;;;5002739;28;20129;-56
2023/09/21 02:10:40;;;;;;;4.00;1.85;;;18.70;99.90;;;;;;5003669;28;20088;-57
2023/09/21 02:13:07;;;;;;;5.40;2.05;;;18.70;99.90;;;;;;5001652;28;20053;-57
2023/09/21 02:15:39;;;;;;;4.82;2.10;;;18.70;99.90;;;;;;5002309;28;20053;-57
2023/09/21 02:18:09;;;;;;;3.65;2.20;;;18.70;99.90;;;;;;5001879;28;20447;-57
2023/09/21 02:20:38;;;;;;;4.32;2.10;;;18.60;99.90;;;;;;5002155;28;20077;-57
2023/09/21 02:23:04;;;;;;;3.90;2.10;;;18.60;99.90;;;;;;5003205;28;20041;-58
2023/09/21 02:25:40;;;;;;;4.03;1.65;;;18.60;99.90;;;;;;5002513;28;20049;-57
2023/09/21 02:28:11;;;;;;;4.75;2.28;;;18.60;99.90;;;;;;5002379;28;20365;-59
2023/09/21 02:30:43;;;;;;;4.43;2.10;;;18.50;99.90;;;;;;4996886;28;20062;-57
2023/09/21 02:33:09;;;;;;;3.53;2.13;;;18.60;99.90;;;;;;4990694;28;20047;-56
2023/09/21 02:35:40;;;;;;;4.90;2.30;;;18.50;99.90;;;;;;4981832;28;20054;-58
2023/09/21 02:38:07;;;;;;;4.13;2.38;;;18.40;99.90;;;;;;4982864;28;20062;-57
2023/09/21 02:40:33;;;;;;;4.68;1.83;;;18.40;99.90;;;;;;4983336;28;20046;-57
2023/09/21 02:43:00;;;;;;;6.40;2.20;;;18.40;99.90;;;;;;4983692;28;20049;-56
2023/09/21 02:45:26;;;;;;;6.35;2.15;;;18.40;99.90;;;;;;4982646;28;20121;-57
2023/09/21 02:47:58;;;;;;;4.63;1.80;;;18.40;99.90;;;;;;4981652;28;20224;-57
2023/09/21 02:50:27;;;;;;;7.50;2.47;;;18.40;99.90;;;;;;4983145;28;20054;-57
2023/09/21 02:52:56;;;;;;;4.32;1.95;;;18.40;99.90;;;;;;4982947;28;20108;-57
2023/09/21 02:55:27;;;;;;;3.88;1.88;;;18.40;99.90;;;;;;4965334;28;20046;-57
2023/09/21 02:57:58;;;;;;;4.15;2.13;;;18.40;99.90;;;;;;4981752;28;20042;-57
2023/09/21 03:00:29;;;;;;;5.30;2.25;;;18.40;99.90;;;;;;4982411;28;20050;-57
2023/09/21 03:02:56;;;;;;;5.13;2.15;;;18.40;99.90;;;;;;5000037;28;20042;-56
2023/09/21 03:05:26;;;;;;;4.15;1.92;;;18.30;99.90;;;;;;5002355;28;20124;-56
2023/09/21 03:07:52;;;;;;;5.10;2.10;;;18.40;99.90;;;;;;5002818;28;20096;-56
2023/09/21 03:10:21;;;;;;;3.72;2.10;;;18.30;99.90;;;;;;5003738;28;20064;-57
2023/09/21 03:12:48;;;;;;;4.35;2.10;;;18.30;99.90;;;;;;5003300;28;20069;-57
2023/09/21 03:15:15;;;;;;;4.30;2.03;;;18.30;99.90;;;;;;5001516;28;20042;-57
2023/09/21 03:17:42;;;;;;;3.90;2.30;;;18.30;99.90;;;;;;5002485;28;20049;-57
2023/09/21 03:20:12;;;;;;;4.00;2.13;;;18.40;99.90;;;;;;5002720;28;20368;-57
2023/09/21 03:22:41;;;;;;;5.28;2.17;;;18.30;99.90;;;;;;5002413;28;20054;-57
2023/09/21 03:25:16;;;;;;;3.63;1.90;;;18.30;99.90;;;;;;5003294;28;20056;-57
2023/09/21 03:27:42;;;;;;;;;;;18.30;99.90;;;;;;5006752;28;20145;-58
2023/09/21 03:30:11;;;;;;;4.63;2.03;;;18.30;99.90;;;;;;5002753;28;19940;-57
2023/09/21 03:32:39;;;;;;;5.20;2.28;;;18.30;99.90;;;;;;4994945;28;20528;-57
2023/09/21 03:35:06;;;;;;;6.78;2.22;;;18.20;99.90;;;;;;4986199;28;20693;-57
2023/09/21 03:37:32;;;;;;;2.95;1.70;;;18.30;99.90;;;;;;4985946;28;20050;-57
2023/09/21 03:39:58;;;;;;;3.30;2.10;;;18.20;99.90;;;;;;4986296;28;20057;-57
2023/09/21 03:42:23;;;;;;;3.67;2.30;;;18.20;99.90;;;;;;4986266;28;20389;-57
2023/09/21 03:44:49;;;;;;;3.45;2.20;;;18.10;99.90;;;;;;4986284;28;20041;-57
2023/09/21 03:47:17;;;;;;;5.03;2.20;;;18.20;99.90;;;;;;4986560;28;20038;-57
2023/09/21 03:49:44;;;;;;;5.35;2.30;;;18.20;99.90;;;;;;4986111;28;20412;-57
2023/09/21 03:52:15;;;;;;;7.30;2.00;;;18.10;99.90;;;;;;4985000;28;20204;-56
2023/09/21 03:54:46;;;;;;;3.88;2.10;;;18.10;99.90;;;;;;4985646;28;20043;-57
2023/09/21 03:57:14;;;;;;;3.22;2.00;;;18.10;99.90;;;;;;4986027;28;20038;-57
2023/09/21 03:59:40;;;;;;;4.15;2.20;;;18.10;99.90;;;;;;4986530;28;20177;-57
2023/09/21 04:02:09;;;;;;;3.78;2.05;;;18.10;99.90;;;;;;4986230;28;20042;-56
2023/09/21 04:04:36;;;;;;;5.10;2.22;;;18.10;99.90;;;;;;4986010;28;20058;-57
2023/09/21 04:07:02;;;;;;;5.43;2.60;;;18.00;99.90;;;;;;4986100;28;20054;-56
2023/09/21 04:09:27;;;;;;;3.00;1.90;;;18.00;99.90;;;;;;4969448;28;20504;-56
2023/09/21 04:11:57;;;;;;;5.03;2.17;;;18.10;99.90;;;;;;4985369;28;20054;-58
2023/09/21 04:14:24;;;;;;;3.30;2.13;;;18.00;99.90;;;;;;4985037;28;20050;-58
2023/09/21 04:16:50;;;;;;;7.95;2.25;;;18.00;99.90;;;;;;4986739;28;20090;-58
2023/09/21 04:19:16;;;;;;;5.22;2.17;;;18.00;99.90;;;;;;4985059;28;20189;-57
2023/09/21 04:21:42;;;;;;;3.60;1.90;;;18.00;99.90;;;;;;4986944;28;20050;-57
2023/09/21 04:24:09;;;;;;;3.92;2.10;;;18.00;99.90;;;;;;4985293;28;20049;-57
2023/09/21 04:26:35;;;;;;;6.75;2.20;;;18.00;99.90;;;;;;4985584;28;20061;-56
2023/09/21 04:29:00;;;;;;;5.50;2.22;;;18.00;99.90;;;;;;4985797;28;20153;-57
2023/09/21 04:31:26;;;;;;;5.82;2.10;;;18.10;99.90;;;;;;4994735;28;20086;-58
2023/09/21 04:33:51;;;;;;;3.55;2.03;;;18.10;99.90;;;;;;5003511;28;20038;-57
2023/09/21 04:36:17;;;;;;;4.07;2.00;;;18.10;99.90;;;;;;5004876;28;20066;-57
2023/09/21 04:38:44;;;;;;;3.30;1.90;;;18.10;99.90;;;;;;5004709;28;20506;-57
2023/09/21 04:41:15;;;;;;;4.80;2.47;;;18.20;99.90;;;;;;5005373;28;20046;-57
2023/09/21 04:43:41;;;;;;;4.00;1.85;;;18.20;99.90;;;;;;5005370;28;20530;-57
2023/09/21 04:46:07;;;;;;;4.95;1.95;;;18.10;99.90;;;;;;5003948;28;20408;-57
2023/09/21 04:48:37;;;;;;;3.65;1.98;;;18.10;99.90;;;;;;5004157;28;20038;-57
2023/09/21 04:51:03;;;;;;;3.75;2.00;;;18.10;99.90;;;;;;5005204;28;20085;-57
2023/09/21 04:53:29;;;;;;;5.22;2.20;;;18.10;99.90;;;;;;5004049;28;20041;-57
2023/09/21 04:55:55;;;;;;;3.90;2.20;;;18.00;99.90;;;;;;5004774;28;20042;-57
2023/09/21 04:58:23;;;;;;;4.13;2.10;;;18.00;99.90;;;;;;5003247;28;20160;-56
2023/09/21 05:00:49;;;;;;;4.13;2.17;;;18.00;99.90;;;;;;5004442;28;20054;-57
2023/09/21 05:03:15;;;;;;;4.97;2.10;;;18.10;99.90;;;;;;5002717;28;20064;-57
2023/09/21 05:05:41;;;;;;;6.22;2.00;;;18.00;99.90;;;;;;5004233;28;20054;-57
2023/09/21 05:08:09;;;;;;;4.57;2.03;;;18.00;99.90;;;;;;5002501;28;20670;-57
2023/09/21 05:10:35;;;;;;;4.22;2.10;;;17.90;99.90;;;;;;5003988;28;20095;-54
2023/09/21 05:13:00;;;;;;;3.53;2.20;;;17.90;99.90;;;;;;5004555;28;20129;-57
2023/09/21 05:15:26;;;;;;;4.55;2.20;;;17.90;99.90;;;;;;5004156;28;20121;-58
2023/09/21 05:17:52;;;;;;;3.83;2.00;;;17.80;99.90;;;;;;5004488;28;20046;-57
2023/09/21 05:20:17;;;;;;;3.67;1.85;;;17.80;99.90;;;;;;5003028;28;20037;-56
2023/09/21 05:22:43;;;;;;;3.88;1.92;;;17.90;99.90;;;;;;5004187;28;20049;-60
2023/09/21 05:25:09;;;;;;;4.45;2.13;;;17.90;99.90;;;;;;5004257;28;20511;-57
2023/09/21 05:27:40;;;;;;;5.20;2.17;;;17.90;99.90;;;;;;5001730;28;20088;-57
2023/09/21 05:30:10;;;;;;;4.05;2.50;;;17.90;99.90;;;;;;5001815;28;20104;-56
2023/09/21 05:32:37;;;;;;;4.50;1.90;;;17.90;99.90;;;;;;4991935;28;20108;-57
2023/09/21 05:35:05;;;;;;;4.13;1.80;;;18.00;99.90;;;;;;4981595;28;20061;-57
2023/09/21 05:37:30;;;;;;;4.78;2.25;;;18.00;99.90;;;;;;5001061;28;20589;-57
2023/09/21 05:39:56;;;;;;;3.35;1.80;;;18.10;99.90;;;;;;4996324;28;20039;-57
2023/09/21 05:42:23;;;;;;;4.07;2.30;;;18.10;99.90;;;;;;5003977;28;20050;-56
2023/09/21 05:44:50;;;;;;;3.50;1.70;;;18.10;99.90;;;;;;4982928;28;20125;-57
2023/09/21 05:47:16;;;;;;;4.22;2.00;;;18.10;99.90;;;;;;4983658;28;20042;-57
2023/09/21 05:49:43;;;;;;;5.28;2.00;;;18.10;99.90;;;;;;4981957;28;20074;-57
2023/09/21 05:52:12;;;;;;;4.50;2.10;;;18.20;99.90;;;;;;4983147;28;20052;-57
2023/09/21 05:54:38;;;;;;;3.60;1.75;;;18.30;99.90;;;;;;4983653;28;20042;-56
2023/09/21 05:57:04;;;;;;;5.88;2.03;;;18.20;99.90;;;;;;4984698;28;20142;-57
2023/09/21 05:59:31;;;;;;;3.80;1.85;;;18.30;99.90;;;;;;4983049;28;20057;-57
2023/09/21 06:02:00;;;;;;;4.00;2.20;;;18.20;99.90;;;;;;4983947;28;20089;-57
2023/09/21 06:04:26;;;;;;;5.07;2.22;;;18.30;99.90;;;;;;4983775;28;20042;-57
2023/09/21 06:06:58;;;;;;;3.13;1.77;;;18.40;99.90;;;;;;4983348;28;20054;-57
2023/09/21 06:09:23;;;;;;;5.15;2.00;;;18.50;99.90;;;;;;4983404;28;20058;-57
2023/09/21 06:11:50;;;;;;;4.07;2.15;;;18.50;99.90;;;;;;4983491;28;20453;-57
2023/09/21 06:14:17;;;;;;;3.00;2.00;;;18.50;99.90;;;;;;4984532;28;20046;-57
2023/09/21 06:16:43;;;;;;;5.85;2.25;;;18.60;99.90;;;;;;4982112;28;20038;-57
2023/09/21 06:19:11;;;;;;;4.28;2.05;;;18.60;99.90;;;;;;4981159;28;20057;-57
2023/09/21 06:21:40;;;;;;;5.07;2.00;;;18.60;99.90;;;;;;4983134;28;20085;-56
2023/09/21 06:24:07;;;;;;;4.50;2.13;;;18.70;99.90;;;;;;4983240;28;20093;-56
2023/09/21 06:26:32;;;;;;;4.38;2.50;;;18.60;99.90;;;;;;4983050;28;20042;-57
2023/09/21 06:28:59;;;;;;;3.63;2.05;;;18.70;99.90;;;;;;4982260;28;20140;-57
2023/09/21 06:31:25;;;;;;;3.10;1.77;;;18.70;99.90;;;;;;4992940;28;20089;-58
2023/09/21 06:33:53;;;;;;;3.22;1.90;;;18.70;99.90;;;;;;4983128;28;20046;-57
2023/09/21 06:36:20;;;;;;;3.97;1.90;;;18.80;99.90;;;;;;4983808;28;20050;-57
2023/09/21 06:38:50;;;;;;;3.38;1.90;;;18.80;99.90;;;;;;4983499;28;20042;-56
2023/09/21 06:41:16;;;;;;;4.22;2.10;;;18.90;99.90;;;;;;4983046;28;20062;-56
2023/09/21 06:43:45;;;;;;;3.42;1.98;;;18.80;99.90;;;;;;4987134;28;20049;-58
2023/09/21 06:46:11;;;;;;;4.28;2.03;;;18.90;99.90;;;;;;4991949;28;20042;-58
2023/09/21 06:48:37;;;;;;;4.90;2.00;;;18.90;99.90;;;;;;4990801;28;20100;-56
2023/09/21 06:51:07;;;;;;;3.90;1.90;;;18.90;99.90;;;;;;4990431;28;20061;-57
2023/09/21 06:53:34;;;;;;;4.20;2.08;;;19.00;99.90;;;;;;4983459;28;20078;-56
2023/09/21 06:56:00;;;;;;;4.85;1.83;;;19.10;99.90;;;;;;5002809;28;20462;-55
2023/09/21 06:58:28;;;;;;;4.30;2.08;;;19.10;99.90;;;;;;5001400;28;20412;-55
2023/09/21 07:00:54;;;;;;;4.63;2.05;;;19.10;99.90;;;;;;5005180;28;20042;-58
2023/09/21 07:03:19;;;;;;;5.07;2.30;;;19.20;99.90;;;;;;4999662;28;20386;-56
2023/09/21 07:05:48;;;;;;;8.15;2.50;;;19.20;99.90;;;;;;4994807;28;20041;-56
2023/09/21 07:08:15;;;;;;;4.72;2.17;;;19.20;99.90;;;;;;5005713;28;20073;-56
2023/09/21 07:10:41;;;;;;;4.25;1.95;;;19.30;99.90;;;;;;5004632;28;20057;-57
2023/09/21 07:13:09;;;;;;;3.90;2.00;;;19.30;99.90;;;;;;4995719;28;20095;-55
2023/09/21 07:15:37;;;;;;;4.75;2.15;;;19.30;99.90;;;;;;4987511;28;20061;-56
2023/09/21 07:18:06;;;;;;;5.93;2.33;;;19.30;99.90;;;;;;4993334;28;20053;-57
2023/09/21 07:20:35;;;;;;;5.60;2.13;;;19.30;99.90;;;;;;4989699;28;20048;-56
2023/09/21 07:23:01;;;;;;;4.43;1.90;;;19.30;99.90;;;;;;4986593;28;20064;-57
2023/09/21 07:25:30;;;;;;;3.08;1.90;;;19.30;99.90;;;;;;5001254;28;20054;-56
2023/09/21 07:27:57;;;;;;;3.40;1.90;;;19.30;99.90;;;;;;5006369;28;20076;-57
2023/09/21 07:30:26;;;;;;;4.03;2.10;;;19.30;99.90;;;;;;4997190;28;20043;-58
2023/09/21 07:32:54;;;;;;;5.65;1.98;;;19.40;99.90;;;;;;4993764;28;20078;-57
2023/09/21 07:35:21;;;;;;;4.93;2.00;;;19.40;99.90;;;;;;4986835;28;20707;-57
2023/09/21 07:37:49;;;;;;;3.80;2.10;;;19.40;99.90;;;;;;4986312;28;20046;-56
2023/09/21 07:40:24;;;;;;;5.40;2.15;;;19.40;99.90;;;;;;4986217;28;20046;-57
2023/09/21 07:42:51;;;;;;;4.63;2.28;;;19.40;99.90;;;;;;4987278;28;20664;-57
2023/09/21 07:45:17;;;;;;;6.43;2.17;;;19.50;99.90;;;;;;4986574;28;20081;-57
2023/09/21 07:47:43;;;;;;;4.47;2.42;;;19.60;99.90;;;;;;4988873;28;20085;-58
2023/09/21 07:50:09;;;;;;;4.63;2.30;;;19.60;99.90;;;;;;4985688;28;20062;-58
2023/09/21 07:52:36;;;;;;;4.93;2.00;;;19.60;99.90;;;;;;5000164;28;20057;-56
2023/09/21 07:55:03;;;;;;;5.55;1.98;;;19.60;99.90;;;;;;4995144;28;20054;-58
2023/09/21 07:57:33;;;;;;;3.95;2.03;;;19.70;99.90;;;;;;4995690;28;20099;-58
2023/09/21 07:59:59;;;;;;;4.03;2.30;;;19.70;99.90;;;;;;5004575;28;20085;-56
2023/09/21 08:02:25;;;;;;;4.07;1.90;;;19.70;99.90;;;;;;5005761;28;20465;-57
2023/09/21 08:04:50;;;;;;;3.80;2.00;;;19.70;99.90;;;;;;5005074;28;20124;-57
2023/09/21 08:07:23;;;;;;;3.20;1.90;;;19.70;99.90;;;;;;5003916;28;20127;-57
2023/09/21 08:09:49;;;;;;;5.78;2.10;;;19.80;99.90;;;;;;5005570;28;20053;-57
2023/09/21 08:12:15;;;;;;;4.93;2.00;;;19.90;99.90;;;;;;5003913;28;20443;-57
2023/09/21 08:14:40;;;;;;;5.35;2.38;;;19.90;99.90;;;;;;5005455;28;20072;-57
2023/09/21 08:17:06;;;;;;;4.28;2.10;;;19.90;99.90;;;;;;5003771;28;20042;-57
2023/09/21 08:19:35;;;;;;;5.13;2.50;;;20.00;99.90;;;;;;4987314;28;20041;-58
2023/09/21 08:22:01;;;;;;;3.20;1.98;;;20.00;99.90;;;;;;5004006;28;20068;-58
2023/09/21 08:24:27;;;;;;;5.38;2.20;;;20.00;99.90;;;;;;5004768;28;20382;-57
2023/09/21 08:26:52;;;;;;;4.40;2.20;;;20.10;99.90;;;;;;5003476;28;20124;-56
2023/09/21 08:29:21;;;;;;;5.38;1.92;;;20.20;99.90;;;;;;5004338;28;20048;-57
2023/09/21 08:31:47;;;;;;;8.05;2.08;;;20.10;99.90;;;;;;4995822;28;20081;-57
2023/09/21 08:34:13;;;;;;;4.43;2.20;;;20.10;99.90;;;;;;4986203;28;20064;-56
2023/09/21 08:36:38;;;;;;;4.32;1.90;;;20.10;99.90;;;;;;4996118;28;20488;-56
2023/09/21 08:39:05;;;;;;;5.88;2.30;;;20.10;99.90;;;;;;4987166;28;20093;-57
2023/09/21 08:41:35;;;;;;;4.43;2.30;;;20.10;99.90;;;;;;4992664;28;20653;-57
2023/09/21 08:44:03;;;;;;;7.13;2.30;;;20.00;99.90;;;;;;4991039;28;20397;-57
2023/09/21 08:46:30;;;;;;;7.07;2.10;;;20.00;99.90;;;;;;4992293;28;20049;-56
2023/09/21 08:48:59;;;;;;;7.30;2.72;;;20.00;99.90;;;;;;4995772;28;20631;-58
2023/09/21 08:51:26;;;;;;;5.47;2.78;;;20.00;99.90;;;;;;4994682;28;20125;-57
2023/09/21 08:53:54;;;;;;;4.90;2.20;;;20.00;99.90;;;;;;4997818;28;20049;-57
2023/09/21 08:56:21;;;;;;;4.55;2.13;;;20.10;99.90;;;;;;5004714;28;20121;-57
2023/09/21 08:58:51;;;;;;;4.72;2.20;;;20.10;99.90;;;;;;4984091;28;20164;-56
2023/09/21 09:01:17;;;;;;;4.20;1.88;;;20.10;99.90;;;;;;4984328;28;20405;-56
2023/09/21 09:03:43;;;;;;;7.75;2.53;;;20.10;99.90;;;;;;4983693;28;20050;-55
2023/09/21 09:06:10;;;;;;;4.68;2.08;;;20.10;99.90;;;;;;4984558;28;20050;-57
2023/09/21 09:08:35;;;;;;;6.38;2.50;;;20.10;99.90;;;;;;4985039;28;20105;-56
2023/09/21 09:11:01;;;;;;;5.55;2.10;;;20.00;99.90;;;;;;4990123;28;20480;-57
2023/09/21 09:13:33;;;;;;;5.85;2.60;;;20.10;99.90;;;;;;5000036;28;20462;-57
2023/09/21 09:16:03;;;;;;;4.80;2.58;;;20.00;99.90;;;;;;5003962;28;20050;-56
2023/09/21 09:18:29;;;;;;;6.28;2.20;;;20.00;99.90;;;;;;5003396;28;20060;-57
2023/09/21 09:20:55;;;;;;;5.20;2.58;;;20.00;99.90;;;;;;5004418;28;20576;-57
2023/09/21 09:23:21;;;;;;;7.55;2.50;;;20.00;99.90;;;;;;5004230;28;20049;-58
2023/09/21 09:25:49;;;;;;;6.30;2.53;;;20.00;99.90;;;;;;5003912;28;20053;-57
2023/09/21 09:28:16;;;;;;;6.90;2.53;;;19.90;99.90;;;;;;5003317;28;20034;-57
2023/09/21 09:30:41;;;;;;;3.88;2.30;;;19.90;99.90;;;;;;4998617;28;20045;-57
2023/09/21 09:33:12;;;;;;;5.80;2.60;;;19.80;99.90;;;;;;4984206;28;20038;-56
2023/09/21 09:35:38;;;;;;;4.55;2.33;;;19.80;99.90;;;;;;4984597;28;20110;-57
2023/09/21 09:38:10;;;;;;;6.35;2.75;;;19.70;99.90;;;;;;4991757;28;20624;-59
2023/09/21 09:40:37;;;;;;;7.70;2.80;;;19.70;99.90;;;;;;4996091;28;20124;-57
2023/09/21 09:43:05;;;;;;;5.25;2.22;;;19.50;99.90;;;;;;4991227;28;20133;-57
2023/09/21 09:45:31;;;;;;;4.10;2.60;;;19.50;99.90;;;;;;4990402;28;20046;-57
2023/09/21 09:48:01;;;;;;;6.07;2.47;;;19.40;99.90;;;;;;5000243;28;20045;-57
2023/09/21 09:50:35;;;;;;;5.00;2.65;;;19.30;99.90;;;;;;5004170;28;20266;-57
2023/09/21 09:53:05;;;;;;;;;;;19.10;99.90;;;;;;5004227;28;20119;-54
2023/09/21 09:55:33;;;;;;;4.93;2.85;;;19.10;99.90;;;;;;4986654;28;19965;-57
2023/09/21 09:58:03;;;;;;;6.57;2.47;;;18.90;99.90;;;;;;4984510;28;20464;-59
2023/09/21 10:00:30;;;;;;;7.35;3.00;;;18.80;99.90;;;;;;4982901;28;20121;-62
2023/09/21 10:02:57;;;;;;;10.57;3.28;;;18.80;99.90;;;;;;4985874;28;20042;-57
2023/09/21 10:05:27;;;;;;;5.65;2.97;;;18.60;99.90;;;;;;4984288;28;20056;-59
2023/09/21 10:08:00;;;;;;;5.35;2.97;;;18.70;99.90;;;;;;4983521;28;20120;-59
2023/09/21 10:10:30;;;;;;;6.07;3.25;;;18.70;99.90;;;;;;4984131;28;20118;-58
2023/09/21 10:12:57;;;;;;;5.28;3.05;;;18.60;99.90;;;;;;4984209;28;20056;-59
2023/09/21 10:15:24;;;;;;;6.35;3.13;;;18.50;99.90;;;;;;4984457;28;20053;-56
2023/09/21 10:17:54;;;;;;;7.15;3.40;;;18.50;99.90;;;;;;4981904;28;20070;-59
2023/09/21 10:20:27;;;;;;;4.38;2.80;;;18.40;99.90;;;;;;4984222;28;20096;-57
2023/09/21 10:22:59;;;;;;;13.50;3.60;;;18.30;99.90;;;;;;4984523;28;20076;-58
2023/09/21 10:25:41;;;;;;;5.32;3.30;;;18.30;99.90;;;;;;4983929;28;20049;-57
2023/09/21 10:28:28;;;;;;;6.55;3.45;;;18.30;99.90;;;;;;4982184;28;20084;-58
2023/09/21 10:30:55;;;;;;;6.22;3.47;;;18.20;99.90;;;;;;4988652;28;20124;-57
2023/09/21 10:33:25;;;;;;;7.20;3.40;;;18.20;99.90;;;;;;4987130;28;20050;-57
2023/09/21 10:35:52;;;;;;;6.78;3.65;;;18.20;99.90;;;;;;4983541;28;20050;-59
2023/09/21 10:38:18;;;;;;;6.18;4.15;;;18.10;99.90;;;;;;4983561;28;20047;-58
2023/09/21 10:40:44;;;;;;;6.85;3.80;;;18.10;99.90;;;;;;4982914;28;20135;-59
2023/09/21 10:43:37;;;;;;;6.55;3.90;;;18.10;99.90;;;;;;4983891;28;20042;-57
2023/09/21 10:46:16;;;;;;;7.07;4.00;;;18.10;99.90;;;;;;4983166;28;20042;-57
2023/09/21 10:48:56;;;;;;;5.28;3.80;;;18.20;99.90;;;;;;4983356;28;20381;-59
2023/09/21 10:51:22;;;;;;;6.75;3.75;;;18.20;99.90;;;;;;4983009;28;20082;-58
2023/09/21 10:53:49;;;;;;;4.93;3.78;;;18.10;99.90;;;;;;4983866;28;20050;-59
2023/09/21 10:56:14;;;;;;;6.43;4.07;;;18.10;99.90;;;;;;4983869;28;20052;-56
2023/09/21 10:58:40;;;;;;;5.80;3.65;;;18.10;99.90;;;;;;4984176;28;20050;-58
2023/09/21 11:01:06;;;;;;;9.20;4.57;;;18.00;99.90;;;;;;4983124;28;20258;-58
2023/09/21 11:03:35;;;;;;;7.60;4.63;;;18.10;99.90;;;;;;4983116;28;20054;-56
2023/09/21 11:06:01;;;;;;;6.90;4.00;;;18.10;99.90;;;;;;4984108;28;20050;-58
2023/09/21 11:08:27;;;;;;;5.72;4.30;;;18.10;99.90;;;;;;4983395;28;20068;-57
2023/09/21 11:10:53;;;;;;;5.28;4.20;;;18.00;99.90;;;;;;4984127;28;20039;-59
2023/09/21 11:13:18;;;;;;;5.82;4.07;;;17.90;99.90;;;;;;4983823;28;20102;-58
2023/09/21 11:15:46;;;;;;;7.50;4.93;;;17.90;99.90;;;;;;4984452;28;20816;-59
2023/09/21 11:18:12;;;;;;;5.45;3.92;;;17.70;99.90;;;;;;4982940;28;20050;-57
2023/09/21 11:20:39;;;;;;;6.45;3.92;;;17.60;99.90;;;;;;4984361;28;20030;-54
2023/09/21 11:23:07;;;;;;;4.70;3.25;;;17.60;99.90;;;;;;4983960;28;20058;-59
2023/09/21 11:25:33;;;;;;;4.93;2.80;;;17.50;99.90;;;;;;4981770;28;21027;-58
2023/09/21 11:27:59;;;;;;;3.20;1.88;;;17.40;99.90;;;;;;4984008;28;20145;-58
2023/09/21 11:30:25;;;;;;;3.85;1.80;;;17.30;99.90;;;;;;4985951;28;20044;-58
2023/09/21 11:32:54;;;;;;;2.20;1.10;;;17.20;99.90;;;;;;4991176;28;20043;-56
2023/09/21 11:35:21;;;;;;;2.42;1.15;;;17.10;99.90;;;;;;4982918;28;20073;-58
2023/09/21 11:37:49;;;;;;;2.05;1.10;;;17.00;99.90;;;;;;4983313;28;20042;-58
2023/09/21 11:40:21;;;;;;;2.20;1.10;;;16.90;99.90;;;;;;4983540;28;20049;-57
2023/09/21 11:42:47;;;;;;;3.55;1.52;;;16.90;99.90;;;;;;4982768;28;20117;-59
2023/09/21 11:45:20;;;;;;;3.50;1.35;;;16.90;99.90;;;;;;4983550;28;20052;-57
2023/09/21 11:47:50;;;;;;;3.03;1.20;;;16.90;99.90;;;;;;4983883;28;20038;-59
2023/09/21 11:50:20;;;;;;;2.05;1.20;;;16.90;99.90;;;;;;4985965;28;20043;-57
2023/09/21 11:52:49;;;;;;;3.17;1.20;;;16.90;99.90;;;;;;4986876;28;20065;-57
2023/09/21 11:55:14;;;;;;;4.25;1.30;;;16.90;99.90;;;;;;4987338;28;20444;-55
2023/09/21 11:57:42;;;;;;;2.92;1.30;;;16.90;99.90;;;;;;5000857;28;20046;-58
2023/09/21 12:00:17;;;;;;;3.28;1.33;;;16.90;99.90;;;;;;4986945;28;20045;-58
2023/09/21 12:02:45;;;;;;;2.88;1.45;;;16.90;99.90;;;;;;4986547;28;20054;-57
2023/09/21 12:05:11;;;;;;;2.97;1.30;;;16.90;99.90;;;;;;4986174;28;20058;-59
2023/09/21 12:07:37;;;;;;;2.90;1.55;;;17.00;99.90;;;;;;4986622;28;20084;-58
2023/09/21 12:10:03;;;;;;;3.38;1.58;;;17.00;99.90;;;;;;4986747;28;20050;-59
2023/09/21 12:12:29;;;;;;;2.90;1.60;;;17.10;99.90;;;;;;4985519;28;20389;-57
2023/09/21 12:14:54;;;;;;;3.03;1.63;;;17.10;99.90;;;;;;4986323;28;20078;-58
2023/09/21 12:17:20;;;;;;;3.63;1.90;;;17.10;99.90;;;;;;4985379;28;20046;-59
2023/09/21 12:19:46;;;;;;;2.53;1.52;;;17.20;99.90;;;;;;4986716;28;20117;-59
2023/09/21 12:22:12;;;;;;;2.88;1.48;;;17.30;99.90;;;;;;4986110;28;20042;-59
2023/09/21 12:24:37;;;;;;;2.55;1.55;;;17.30;99.90;;;;;;4986599;28;20042;-57
2023/09/21 12:27:06;;;;;;;3.47;1.70;;;17.40;99.90;;;;;;4986172;28;20042;-56
2023/09/21 12:29:36;;;;;;;3.10;1.60;;;17.50;99.90;;;;;;4985762;28;20046;-58
2023/09/21 12:32:05;;;;;;;2.78;1.70;;;17.70;99.90;;;;;;4995079;28;20050;-58
2023/09/21 12:34:34;;;;;;;5.13;1.65;;;17.80;99.90;;;;;;4985260;28;20051;-59
2023/09/21 12:37:00;;;;;;;3.33;1.80;;;17.80;99.90;;;;;;4983386;28;20111;-58
2023/09/21 12:39:26;;;;;;;3.03;1.63;;;17.90;99.90;;;;;;4985190;28;20117;-59
2023/09/21 12:41:52;;;;;;;2.85;1.70;;;17.90;99.90;;;;;;4984958;28;20489;-59
2023/09/21 12:44:19;;;;;;;3.97;1.88;;;17.90;99.90;;;;;;4985559;28;20046;-59
2023/09/21 12:46:44;;;;;;;4.28;1.80;;;17.80;99.90;;;;;;4984817;28;20108;-59
2023/09/21 12:49:10;;;;;;;3.17;1.77;;;17.80;99.90;;;;;;4985432;28;20516;-58
2023/09/21 12:51:36;;;;;;;3.05;1.98;;;17.70;99.90;;;;;;4986243;28;20046;-59
2023/09/21 12:54:02;;;;;;;2.83;1.85;;;17.40;99.90;;;;;;4985524;28;20054;-59